Time;durP1;ratioP1;P1;durP2;ratioP2;P2;SDS_P1;SDS_P2;PMS_P1;PMS_P2;Temp;Humidity;BMP_temperature;BMP_pressure;BME280_temperature;BME280_humidity;BME280_pressure;Samples;Min_cycle;Max_cycle;Signal;HPM_P1;HPM_P2
2022/02/05 00:03:56;;;;;;;6.70;3.13;;;;;;;5.84;100.00;99224.98;3636509;79;98802;-90
2022/02/05 00:09:06;;;;;;;8.90;4.28;;;;;;;5.78;100.00;99215.53;3624242;79;98381;-90
2022/02/05 00:45:43;;;;;;;9.78;4.22;;;;;;;5.64;100.00;99190.03;3671289;77;98471;-90
2022/02/05 00:50:48;;;;;;;7.03;3.57;;;;;;;5.65;100.00;99173.86;3663746;78;98480;-90
2022/02/05 00:55:53;;;;;;;9.18;3.50;;;;;;;5.66;100.00;99180.88;3665663;78;30145;-90
2022/02/05 01:00:48;;;;;;;5.90;2.60;;;;;;;5.68;100.00;99179.34;3674283;78;98256;-93
2022/02/05 01:05:49;;;;;;;6.87;2.40;;;;;;;5.70;100.00;99188.53;3671812;78;98487;-92
2022/02/05 01:10:51;;;;;;;6.63;2.50;;;;;;;5.74;100.00;99183.91;3661599;78;98538;-93
2022/02/05 01:16:03;;;;;;;4.47;2.03;;;;;;;5.80;100.00;99190.05;3660686;78;98486;-87
2022/02/05 01:21:10;;;;;;;2.92;1.20;;;;;;;5.83;100.00;99200.20;3660136;78;98600;-89
2022/02/05 01:31:27;;;;;;;1.05;0.50;;;;;;;5.48;100.00;99306.22;3652442;79;98435;-91
2022/02/05 01:39:23;;;;;;;0.72;0.33;;;;;;;5.03;100.00;99359.52;3648863;79;98714;-91
2022/02/05 01:52:24;;;;;;;2.17;0.40;;;;;;;4.23;100.00;99428.91;3615395;79;98728;-91
2022/02/05 01:57:39;;;;;;;1.70;0.60;;;;;;;3.99;100.00;99448.26;3646493;79;98804;-90
2022/02/05 02:13:36;;;;;;;1.47;0.62;;;;;;;3.53;100.00;99515.23;3650542;79;99056;-89
2022/02/05 02:28:46;;;;;;;4.37;0.90;;;;;;;3.27;100.00;99574.02;3629019;79;98595;-91
2022/02/05 02:33:45;;;;;;;2.47;0.47;;;;;;;3.18;100.00;99601.92;3642697;79;98883;-89
2022/02/05 02:38:49;;;;;;;2.00;0.20;;;;;;;3.11;100.00;99623.49;3604135;79;98156;-89
2022/02/05 02:43:46;;;;;;;1.65;0.47;;;;;;;3.06;100.00;99625.88;3651744;79;98508;-91
2022/02/05 02:48:48;;;;;;;1.60;0.57;;;;;;;3.05;100.00;99639.24;3635642;79;98762;-92
2022/02/05 02:59:21;;;;;;;0.57;0.30;;;;;;;2.99;100.00;99673.24;3641869;78;98389;-88
2022/02/05 03:04:11;;;;;;;2.55;0.55;;;;;;;2.95;100.00;99675.64;3646558;78;98470;-92
2022/02/05 03:09:12;;;;;;;2.22;0.50;;;;;;;2.93;100.00;99686.05;3632199;79;98884;-88
2022/02/05 03:14:13;;;;;;;1.67;0.70;;;;;;;2.94;100.00;99694.42;3651935;79;34905;-89
2022/02/05 03:19:15;;;;;;;1.63;0.63;;;;;;;2.96;100.00;99707.12;3637491;78;98703;-91
2022/02/05 03:24:16;;;;;;;3.35;0.80;;;;;;;2.97;100.00;99729.88;3627586;79;98333;-92
2022/02/05 03:29:17;;;;;;;3.07;0.90;;;;;;;2.98;100.00;99740.16;3609314;79;98573;-91
2022/02/05 03:34:18;;;;;;;4.23;0.73;;;;;;;2.99;100.00;99753.97;3631300;79;98797;-94
2022/02/05 03:39:21;;;;;;;2.97;0.60;;;;;;;3.00;100.00;99756.94;3625347;79;98805;-94
2022/02/05 03:44:23;;;;;;;2.37;0.57;;;;;;;2.98;100.00;99761.91;3619942;79;26342;-87
2022/02/05 03:49:25;;;;;;;2.27;0.60;;;;;;;2.95;100.00;99768.05;3626562;79;98721;-93
2022/02/05 03:54:28;;;;;;;3.77;0.70;;;;;;;2.91;100.00;99770.66;3640220;79;98655;-92
2022/02/05 03:59:29;;;;;;;3.80;0.80;;;;;;;2.87;100.00;99786.61;3634638;79;98719;-90
2022/02/05 04:04:30;;;;;;;3.27;0.70;;;;;;;2.89;100.00;99798.73;3597106;79;98450;-92
2022/02/05 04:09:38;;;;;;;5.57;1.00;;;;;;;2.90;100.00;99822.62;3631160;78;98780;-93
2022/02/05 04:19:52;;;;;;;4.30;1.17;;;;;;;2.88;100.00;99820.25;3619636;79;98560;-94
2022/02/05 04:24:53;;;;;;;4.80;1.73;;;;;;;2.88;100.00;99832.47;3634248;78;98259;-89
2022/02/05 04:29:54;;;;;;;4.60;1.23;;;;;;;2.89;100.00;99832.70;3617308;78;98486;-95
2022/02/05 04:34:55;;;;;;;2.10;0.80;;;;;;;2.88;100.00;99834.39;3634230;78;97691;-94
2022/02/05 04:40:13;;;;;;;6.20;0.95;;;;;;;2.90;100.00;99849.80;3598541;79;98460;-91
2022/02/05 04:46:28;;;;;;;8.68;1.35;;;;;;;2.88;100.00;99848.78;3629260;79;98888;-94
2022/02/05 05:06:00;;;;;;;6.90;1.03;;;;;;;2.89;100.00;99895.78;3622012;78;98485;-94
2022/02/05 05:11:21;;;;;;;5.93;1.20;;;;;;;2.88;100.00;99890.90;3613567;79;98373;-94
2022/02/05 05:21:04;;;;;;;7.90;1.47;;;;;;;2.91;100.00;99898.94;3622151;79;98848;-94
2022/02/05 05:26:05;;;;;;;11.10;2.20;;;;;;;2.91;100.00;99903.02;3681597;78;35367;-95
2022/02/05 05:31:06;;;;;;;7.63;1.70;;;;;;;2.90;100.00;99905.52;3666112;78;98603;-91
2022/02/05 05:36:07;;;;;;;4.17;1.20;;;;;;;2.91;100.00;99915.25;3687136;78;98493;-95
2022/02/05 05:41:09;;;;;;;9.60;1.50;;;;;;;2.93;100.00;99911.62;3672078;78;98536;-91
2022/02/05 05:46:17;;;;;;;6.27;2.13;;;;;;;2.95;100.00;99922.96;3684033;78;98500;-93
2022/02/05 05:51:16;;;;;;;3.70;1.20;;;;;;;2.98;100.00;99925.79;3672905;78;98541;-96
2022/02/05 05:56:21;;;;;;;6.30;1.40;;;;;;;2.97;100.00;99929.64;3679882;78;34861;-96
2022/02/05 06:01:22;;;;;;;5.97;1.50;;;;;;;2.96;100.00;99940.84;3678895;78;98562;-88
2022/02/05 06:06:24;;;;;;;8.43;1.93;;;;;;;2.94;100.00;99947.17;3671353;78;98601;-95
2022/02/05 06:11:27;;;;;;;7.80;1.80;;;;;;;2.93;100.00;99957.81;3673442;78;98493;-95
2022/02/05 06:16:31;;;;;;;7.33;1.73;;;;;;;2.94;100.00;99962.12;3685113;78;98474;-91
2022/02/05 06:21:30;;;;;;;6.47;1.87;;;;;;;2.97;100.00;99966.34;3662729;78;98883;-95
2022/02/05 06:26:31;;;;;;;10.90;1.67;;;;;;;3.00;100.00;99972.44;3648303;79;34854;-96
2022/02/05 06:31:32;;;;;;;12.13;2.80;;;;;;;3.02;100.00;99974.83;3644204;79;98434;-90
2022/02/05 06:36:33;;;;;;;9.73;1.63;;;;;;;3.03;100.00;99977.22;3656499;79;98571;-94
2022/02/05 06:41:33;;;;;;;8.67;1.70;;;;;;;3.06;100.00;99986.03;3640119;79;98212;-95
2022/02/05 06:46:35;;;;;;;6.07;1.60;;;;;;;3.04;100.00;99987.50;3666334;79;98806;-89
2022/02/05 06:51:36;;;;;;;9.07;2.00;;;;;;;3.09;100.00;100010.40;3642863;79;98432;-91
2022/02/05 06:56:36;;;;;;;8.93;1.90;;;;;;;3.10;100.00;100012.78;3643188;79;34851;-93
2022/02/05 07:01:37;;;;;;;8.43;1.80;;;;;;;3.13;100.00;100014.03;3651139;79;98702;-93
2022/02/05 07:06:38;;;;;;;7.95;2.85;;;;;;;3.15;100.00;100018.00;3655647;79;98440;-94
2022/02/05 07:11:39;;;;;;;8.08;1.87;;;;;;;3.17;100.00;100023.89;3652580;79;98748;-90
2022/02/05 07:16:41;;;;;;;6.03;2.03;;;;;;;3.21;100.00;100023.45;3655714;79;98246;-92
2022/02/05 07:21:49;;;;;;;9.63;2.37;;;;;;;3.23;100.00;100030.69;3664295;79;98204;-93
2022/02/05 07:32:07;;;;;;;5.57;1.77;;;;;;;3.31;100.00;100033.89;3630573;79;98217;-92
2022/02/05 07:37:09;;;;;;;7.53;2.42;;;;;;;3.36;100.00;100039.67;3625166;79;98670;-92
2022/02/05 07:42:10;;;;;;;8.67;1.90;;;;;;;3.39;100.00;100036.28;3622934;79;99022;-88
2022/02/05 07:47:11;;;;;;;6.10;1.97;;;;;;;3.43;100.00;100036.62;3636266;78;98708;-92
2022/02/05 07:52:12;;;;;;;7.03;2.47;;;;;;;3.48;100.00;100041.03;3640765;79;99149;-90
2022/02/05 07:57:13;;;;;;;10.13;2.70;;;;;;;3.55;100.00;100050.22;3635951;78;98858;-91
2022/02/05 08:02:14;;;;;;;10.60;3.10;;;;;;;3.62;100.00;100057.28;3639650;79;32480;-92
2022/02/05 08:07:15;;;;;;;12.43;3.15;;;;;;;3.67;100.00;100063.83;3631155;79;98683;-88
2022/02/05 08:12:18;;;;;;;12.00;4.17;;;;;;;3.74;100.00;100068.72;3623927;79;98777;-92
2022/02/05 08:17:26;;;;;;;10.13;2.58;;;;;;;3.77;100.00;100083.79;3630789;79;98848;-94
2022/02/05 08:22:22;;;;;;;7.13;2.50;;;;;;;3.75;100.00;100085.27;3645359;79;98778;-96
2022/02/05 08:27:23;;;;;;;7.80;2.50;;;;;;;3.70;100.00;100075.96;3654289;78;98896;-93
2022/02/05 08:32:27;;;;;;;8.67;2.97;;;;;;;3.67;100.00;100069.86;3681241;78;32503;-92
2022/02/05 08:37:30;;;;;;;13.15;3.15;;;;;;;3.66;100.00;100079.94;3671427;78;98845;-94
2022/02/05 08:42:31;;;;;;;9.93;2.83;;;;;;;3.70;100.00;100082.21;3686289;78;99175;-93
2022/02/05 08:47:34;;;;;;;9.10;2.97;;;;;;;3.81;100.00;100076.55;3676468;78;98943;-90
2022/02/05 08:52:38;;;;;;;13.28;3.47;;;;;;;3.95;100.00;100082.45;3673282;78;98618;-92
2022/02/05 08:57:39;;;;;;;13.93;4.75;;;;;;;4.04;100.00;100089.91;3670483;78;98877;-91
2022/02/05 09:07:44;;;;;;;7.10;2.85;;;;;;;4.12;100.00;100097.73;3684903;78;98711;-90
2022/02/05 09:13:08;;;;;;;10.78;3.40;;;;;;;4.17;100.00;100093.42;3676011;78;98513;-94
2022/02/05 09:17:48;;;;;;;12.13;3.45;;;;;;;4.21;100.00;100103.28;3673799;78;99145;-92
2022/02/05 09:22:50;;;;;;;12.68;4.08;;;;;;;4.23;100.00;100110.56;3682150;78;98470;-91
2022/02/05 09:27:51;;;;;;;12.30;2.97;;;;;;;4.28;100.00;100105.44;3671965;78;98881;-94
2022/02/05 09:32:52;;;;;;;13.30;3.05;;;;;;;4.30;100.00;100113.49;3686034;78;33030;-91
2022/02/05 09:37:53;;;;;;;9.87;3.10;;;;;;;4.28;100.00;100113.05;3663692;78;98630;-95
2022/02/05 09:42:54;;;;;;;9.73;3.47;;;;;;;4.28;100.00;100107.61;3665622;78;98428;-91
2022/02/05 09:47:55;;;;;;;12.07;3.10;;;;;;;4.28;99.83;100116.33;3663774;77;98607;-91
2022/02/05 09:53:01;;;;;;;9.60;3.10;;;;;;;4.28;99.74;100114.41;3669099;78;98686;-94
2022/02/05 09:57:59;;;;;;;9.00;3.22;;;;;;;4.28;99.34;100133.48;3672957;78;98515;-91
2022/02/05 10:03:02;;;;;;;10.30;2.67;;;;;;;4.31;99.21;100128.69;3686728;78;32784;-94
2022/02/05 10:08:09;;;;;;;12.23;2.77;;;;;;;4.36;99.00;100135.86;3632722;78;98874;-93
2022/02/05 10:13:15;;;;;;;8.88;3.52;;;;;;;4.41;97.85;100145.94;3686397;78;98478;-94
2022/02/05 10:18:29;;;;;;;8.33;3.17;;;;;;;4.47;96.63;100140.48;3682505;78;98164;-92
2022/02/05 10:23:34;;;;;;;10.50;2.25;;;;;;;4.50;96.69;100141.72;3673236;78;98474;-96
2022/02/05 10:28:37;;;;;;;7.67;2.67;;;;;;;4.54;95.98;100161.12;3638314;78;98665;-90
2022/02/05 10:33:38;;;;;;;6.83;2.08;;;;;;;4.61;95.66;100146.37;3627567;78;98428;-89
2022/02/05 10:43:46;;;;;;;9.23;3.15;;;;;;;4.76;95.31;100154.39;3627073;79;98725;-87
2022/02/05 10:48:48;;;;;;;7.10;1.80;;;;;;;4.84;93.67;100143.91;3616227;78;98694;-91
2022/02/05 10:53:54;;;;;;;7.27;2.27;;;;;;;4.80;92.48;100157.44;3629840;78;98856;-91
2022/02/05 10:59:16;;;;;;;7.13;1.93;;;;;;;4.82;92.49;100172.91;3628867;78;98415;-95
2022/02/05 11:09:38;;;;;;;5.80;1.40;;;;;;;4.82;91.49;100178.91;3628744;79;98486;-87
2022/02/05 11:19:59;;;;;;;7.37;1.50;;;;;;;4.92;89.51;100177.84;3628868;79;98446;-89
2022/02/05 11:25:04;;;;;;;7.90;1.55;;;;;;;4.96;87.71;100180.11;3650479;78;98660;-94
2022/02/05 11:30:36;;;;;;;10.08;2.50;;;;;;;5.00;88.63;100178.85;3667106;78;98475;-89
2022/02/05 11:40:55;;;;;;;17.10;2.67;;;;;;;5.00;85.20;100202.03;3662031;78;98626;-90
2022/02/05 11:46:13;;;;;;;12.30;3.53;;;;;;;5.02;85.69;100222.36;3672551;78;98703;-87
2022/02/05 11:51:36;;;;;;;12.95;2.60;;;;;;;5.06;86.35;100218.38;3671854;78;98714;-85
2022/02/05 11:57:01;;;;;;;8.10;1.23;;;;;;;5.25;85.19;100209.02;3670962;78;30080;-86
2022/02/05 12:02:19;;;;;;;5.50;1.32;;;;;;;5.39;84.39;100218.94;3684053;78;98772;-86
2022/02/05 12:07:20;;;;;;;8.73;1.90;;;;;;;5.19;85.11;100214.49;3652639;78;98498;-88
2022/02/05 12:12:38;;;;;;;6.50;1.30;;;;;;;5.28;85.37;100251.39;3678692;78;97743;-87
2022/02/05 12:18:09;;;;;;;4.83;1.70;;;;;;;5.28;85.64;100257.41;3666575;78;98810;-88
2022/02/05 12:23:27;;;;;;;10.17;2.50;;;;;;;5.23;85.78;100257.09;3673052;78;98456;-87
2022/02/05 12:28:42;;;;;;;13.58;3.20;;;;;;;5.20;85.33;100272.80;3610318;79;98683;-85
2022/02/05 12:34:03;;;;;;;14.23;4.72;;;;;;;5.23;85.32;100272.09;3628517;79;99272;-88
2022/02/05 12:39:09;;;;;;;10.80;2.72;;;;;;;5.26;82.88;100275.52;3626542;78;98289;-89
2022/02/05 12:44:10;;;;;;;9.05;2.67;;;;;;;5.23;84.53;100268.00;3609832;79;98893;-87
2022/02/05 12:49:20;;;;;;;7.63;2.30;;;;;;;5.26;86.39;100264.60;3599644;79;98853;-89
2022/02/05 12:54:20;;;;;;;23.25;7.42;;;;;;;5.42;85.12;100256.47;3622574;78;98518;-93
2022/02/05 12:59:33;;;;;;;16.60;4.20;;;;;;;5.51;83.89;100259.27;3624571;78;98329;-90
2022/02/05 13:04:41;;;;;;;13.62;3.62;;;;;;;5.57;84.27;100257.87;3625105;79;98976;-92
2022/02/05 13:09:52;;;;;;;8.03;1.95;;;;;;;5.62;83.41;100281.42;3628768;78;98961;-90
2022/02/05 13:15:04;;;;;;;12.73;3.17;;;;;;;5.57;82.62;100281.08;3638107;79;34911;-92
2022/02/05 13:36:21;;;;;;;11.03;3.90;;;;;;;5.16;81.80;100306.00;3641259;79;98770;-90
2022/02/05 13:41:17;;;;;;;12.23;3.83;;;;;;;5.18;82.11;100312.48;3501488;81;98615;-95
2022/02/05 13:46:20;;;;;;;17.87;4.87;;;;;;;5.22;80.94;100329.17;3595201;79;98642;-96
2022/02/05 13:51:21;;;;;;;10.98;2.05;;;;;;;5.26;82.02;100330.64;3620035;79;98609;-91
2022/02/05 13:56:23;;;;;;;10.90;2.10;;;;;;;5.31;81.84;100343.48;3619325;79;32468;-93
2022/02/05 14:01:34;;;;;;;15.68;5.65;;;;;;;5.33;81.67;100339.03;3633396;79;98340;-91
2022/02/05 14:06:57;;;;;;;10.28;3.87;;;;;;;5.30;83.15;100340.51;3631418;79;98548;-90
2022/02/05 14:12:17;;;;;;;9.08;2.20;;;;;;;5.29;82.84;100346.34;3629474;79;98703;-89
2022/02/05 14:17:19;;;;;;;14.58;5.15;;;;;;;5.24;82.84;100356.11;3609874;79;98547;-89
2022/02/05 14:22:25;;;;;;;11.85;2.60;;;;;;;5.23;83.03;100362.13;3618408;79;98738;-92
2022/02/05 14:27:30;;;;;;;13.33;4.17;;;;;;;5.23;82.59;100369.53;3651718;78;98552;-90
2022/02/05 14:42:49;;;;;;;9.58;3.00;;;;;;;5.17;82.64;100368.96;3673208;77;98561;-89
2022/02/05 14:47:50;;;;;;;7.73;2.80;;;;;;;5.16;82.80;100367.93;3672624;78;98598;-88
2022/02/05 14:52:51;;;;;;;13.80;5.00;;;;;;;5.10;80.81;100372.03;3684522;78;98771;-94
2022/02/05 14:57:53;;;;;;;12.70;3.60;;;;;;;5.04;82.70;100382.39;3628157;78;98679;-90
2022/02/05 15:02:54;;;;;;;11.55;2.75;;;;;;;5.02;81.90;100398.28;3683077;78;32444;-91
2022/02/05 15:07:55;;;;;;;14.87;4.37;;;;;;;4.98;82.18;100398.75;3679716;78;98609;-94
2022/02/05 15:12:55;;;;;;;11.93;3.70;;;;;;;4.94;82.08;100410.11;3676350;78;98366;-91
2022/02/05 15:17:56;;;;;;;14.97;3.37;;;;;;;4.93;82.79;100401.70;3680210;78;98682;-89
2022/02/05 15:23:00;;;;;;;11.87;2.90;;;;;;;4.88;83.35;100407.38;3653972;78;98985;-92
2022/02/05 15:28:01;;;;;;;13.60;3.27;;;;;;;4.87;83.47;100412.61;3640479;78;98826;-96
2022/02/05 15:33:06;;;;;;;10.00;2.33;;;;;;;4.76;83.14;100423.70;3628200;80;32698;-96
2022/02/05 15:38:15;;;;;;;11.65;2.72;;;;;;;4.67;83.39;100424.94;3634836;78;98667;-96
2022/02/05 15:48:22;;;;;;;11.28;2.55;;;;;;;4.50;83.94;100441.47;3672982;78;34840;-89
2022/02/05 15:53:23;;;;;;;9.00;2.43;;;;;;;4.41;84.33;100440.20;3623387;79;99273;-91
2022/02/05 15:58:40;;;;;;;;;;;;;;;;;;;;;
2022/02/05 16:03:27;;;;;;;9.43;2.92;;;;;;;4.29;85.16;100453.78;3544969;80;31914;-88
2022/02/05 16:08:28;;;;;;;12.43;3.63;;;;;;;4.25;85.44;100454.20;3558994;80;99108;-91
2022/02/05 16:13:30;;;;;;;19.53;6.23;;;;;;;4.20;85.75;100451.69;3578303;80;99072;-89
2022/02/05 16:18:39;;;;;;;19.67;5.03;;;;;;;4.16;85.99;100455.42;3591519;79;98833;-94
2022/02/05 16:23:40;;;;;;;24.23;7.20;;;;;;;4.10;86.19;100459.48;3646896;79;98684;-90
2022/02/05 16:28:42;;;;;;;18.50;7.07;;;;;;;4.07;86.44;100461.49;3601610;79;98164;-91
2022/02/05 16:33:45;;;;;;;14.57;4.87;;;;;;;4.06;86.79;100468.08;3507812;82;98331;-89
2022/02/05 16:38:53;;;;;;;15.57;4.83;;;;;;;4.05;87.00;100472.71;3511468;81;98504;-88
2022/02/05 16:43:53;;;;;;;14.40;3.00;;;;;;;4.07;87.07;100472.39;3524203;80;98762;-91
2022/02/05 16:48:57;;;;;;;17.23;4.30;;;;;;;4.06;87.34;100470.80;3532425;79;98820;-89
2022/02/05 16:53:58;;;;;;;16.33;4.13;;;;;;;4.05;87.69;100462.40;3594711;77;98754;-88
2022/02/05 16:59:11;;;;;;;;;;;;;;;;;;;;;
2022/02/05 17:04:05;;;;;;;21.57;5.67;;;;;;;4.05;87.70;100465.91;3592911;79;28671;-93
2022/02/05 17:09:15;;;;;;;18.60;5.93;;;;;;;4.03;87.82;100467.36;3537427;80;98909;-92
2022/02/05 17:14:20;;;;;;;16.90;5.13;;;;;;;4.00;87.94;100460.69;3561857;81;98402;-90
2022/02/05 17:19:24;;;;;;;15.80;4.60;;;;;;;3.98;87.83;100465.64;3542453;80;98615;-88
2022/02/05 17:24:27;;;;;;;22.50;6.20;;;;;;;3.92;88.04;100460.72;3564645;80;98672;-89
2022/02/05 17:29:28;;;;;;;19.60;6.00;;;;;;;3.95;88.22;100469.05;3535141;80;98841;-94
2022/02/05 17:34:28;;;;;;;16.83;5.63;;;;;;;3.93;88.22;100462.34;3562727;81;33029;-89
2022/02/05 17:39:31;;;;;;;19.10;4.57;;;;;;;3.93;88.42;100463.70;3599321;80;98568;-88
2022/02/05 17:44:34;;;;;;;11.83;3.93;;;;;;;3.94;88.18;100470.16;3595646;80;98831;-89
2022/02/05 17:49:39;;;;;;;16.03;4.20;;;;;;;3.96;88.20;100461.66;3593336;79;98745;-88
2022/02/05 17:54:40;;;;;;;18.47;4.40;;;;;;;3.98;88.34;100468.38;3622783;79;99147;-91
2022/02/05 17:59:41;;;;;;;17.50;5.00;;;;;;;3.97;88.15;100462.70;3619172;79;98659;-95
2022/02/05 18:04:42;;;;;;;23.07;6.70;;;;;;;3.96;87.96;100464.38;3632357;79;32534;-90
2022/02/05 18:15:00;;;;;;;20.37;6.47;;;;;;;3.87;88.04;100470.48;3632293;79;98505;-91
2022/02/05 18:19:50;;;;;;;22.40;6.50;;;;;;;3.82;87.84;100466.59;3624834;79;98943;-89
2022/02/05 18:24:51;;;;;;;23.70;7.57;;;;;;;3.77;88.05;100459.98;3640946;79;98786;-90
2022/02/05 18:29:56;;;;;;;22.10;7.40;;;;;;;3.67;88.07;100460.36;3627289;79;98714;-89
2022/02/05 18:34:57;;;;;;;24.67;8.20;;;;;;;3.62;88.35;100475.52;3625373;78;98696;-90
2022/02/05 18:39:58;;;;;;;18.82;6.58;;;;;;;3.54;88.31;100470.91;3616184;79;98641;-90
2022/02/05 18:45:02;;;;;;;20.50;6.83;;;;;;;3.46;88.45;100472.58;3622408;79;98951;-91
2022/02/05 18:50:04;;;;;;;23.70;6.90;;;;;;;3.40;88.61;100464.92;3612825;79;98713;-91
2022/02/05 18:55:07;;;;;;;25.60;6.67;;;;;;;3.34;88.89;100462.94;3592945;80;98718;-89
2022/02/05 19:00:15;;;;;;;19.42;7.03;;;;;;;3.29;89.18;100453.59;3583688;80;98823;-93
2022/02/05 19:10:45;;;;;;;21.27;7.40;;;;;;;3.29;89.54;100430.48;3597935;80;98216;-89
2022/02/05 19:20:52;;;;;;;18.17;6.83;;;;;;;3.31;89.63;100427.44;3600811;80;98456;-89
2022/02/05 19:25:55;;;;;;;21.43;7.80;;;;;;;3.33;89.52;100430.65;3606261;80;99052;-86
2022/02/05 19:30:56;;;;;;;23.32;7.55;;;;;;;3.31;89.37;100432.33;3609733;79;98654;-86
2022/02/05 19:35:58;;;;;;;16.67;4.83;;;;;;;3.28;89.16;100437.05;3596235;80;99134;-86
2022/02/05 19:41:00;;;;;;;16.03;5.40;;;;;;;3.24;89.06;100425.80;3594221;79;98744;-86
2022/02/05 19:46:01;;;;;;;15.70;5.90;;;;;;;3.20;89.00;100418.88;3611353;80;28131;-86
2022/02/05 19:51:02;;;;;;;18.62;6.47;;;;;;;3.15;89.03;100418.25;3569194;78;98659;-86
2022/02/05 19:56:04;;;;;;;15.90;5.50;;;;;;;3.09;88.97;100420.37;3552887;80;98726;-86
2022/02/05 20:01:05;;;;;;;16.73;6.83;;;;;;;3.04;89.18;100419.73;3537222;81;98816;-86
2022/02/05 20:06:13;;;;;;;14.10;4.87;;;;;;;2.99;89.35;100408.50;3544246;80;98783;-86
2022/02/05 20:11:09;;;;;;;12.63;5.40;;;;;;;2.95;89.51;100403.47;3532023;81;99117;-85
2022/02/05 20:16:10;;;;;;;15.80;5.23;;;;;;;2.93;89.31;100404.38;3549892;81;33241;-86
2022/02/05 20:21:15;;;;;;;14.70;5.87;;;;;;;2.92;89.45;100393.27;3542701;80;98650;-86
2022/02/05 20:26:16;;;;;;;16.23;4.90;;;;;;;2.92;89.41;100396.54;3551291;81;98499;-86
2022/02/05 20:31:17;;;;;;;20.55;6.75;;;;;;;2.90;89.45;100394.14;3534426;81;98687;-84
2022/02/05 20:36:19;;;;;;;17.52;5.28;;;;;;;2.88;89.57;100390.16;3543268;81;98742;-91
2022/02/05 20:41:20;;;;;;;19.00;5.23;;;;;;;2.90;89.27;100390.64;3542955;81;98771;-85
2022/02/05 20:46:21;;;;;;;14.97;6.40;;;;;;;2.90;89.34;100387.92;3544919;81;33098;-85
2022/02/05 20:51:22;;;;;;;19.53;6.00;;;;;;;2.91;89.28;100378.09;3538760;80;98502;-84
2022/02/05 20:56:24;;;;;;;22.13;7.17;;;;;;;2.92;89.36;100370.72;3556377;80;98688;-85
2022/02/05 21:01:27;;;;;;;18.37;6.60;;;;;;;2.91;89.39;100371.84;3572077;78;99188;-85
2022/02/05 21:06:28;;;;;;;17.00;5.80;;;;;;;2.88;89.63;100371.94;3577306;79;98598;-84
2022/02/05 21:11:29;;;;;;;21.10;5.87;;;;;;;2.87;89.49;100362.20;3571429;79;98680;-86
2022/02/05 21:16:32;;;;;;;18.07;5.57;;;;;;;2.86;89.44;100353.00;3572402;80;32439;-86
2022/02/05 21:21:33;;;;;;;14.93;5.80;;;;;;;2.78;89.63;100338.33;3569197;78;98476;-85
2022/02/05 21:26:37;;;;;;;14.87;5.00;;;;;;;2.85;89.67;100348.70;3557488;80;98546;-86
2022/02/05 21:31:47;;;;;;;14.03;4.60;;;;;;;2.84;89.57;100350.61;3560378;79;98688;-88
2022/02/05 21:36:40;;;;;;;15.33;4.97;;;;;;;2.85;89.49;100352.77;3565331;79;99102;-85
2022/02/05 21:41:41;;;;;;;14.87;5.17;;;;;;;2.85;89.56;100342.69;3550874;80;98725;-85
2022/02/05 21:46:42;;;;;;;11.83;5.07;;;;;;;2.85;89.59;100334.53;3573333;78;98237;-85
2022/02/05 21:51:43;;;;;;;13.77;4.53;;;;;;;2.86;89.65;100327.99;3593364;79;98239;-84
2022/02/05 21:57:01;;;;;;;13.13;4.70;;;;;;;2.92;89.50;100315.80;3619889;79;98963;-85
2022/02/05 22:01:56;;;;;;;13.30;4.87;;;;;;;2.96;88.95;100317.30;3621539;79;99027;-87
2022/02/05 22:06:57;;;;;;;11.87;4.60;;;;;;;3.02;89.22;100309.99;3621567;79;99130;-85
2022/02/05 22:11:59;;;;;;;16.07;4.53;;;;;;;3.05;89.24;100303.88;3624132;79;98793;-85
2022/02/05 22:17:00;;;;;;;10.30;3.70;;;;;;;3.05;89.35;100295.72;3629151;79;98854;-85
2022/02/05 22:22:02;;;;;;;15.40;4.50;;;;;;;3.09;88.98;100287.14;3632452;79;32497;-85
2022/02/05 22:27:05;;;;;;;17.20;4.67;;;;;;;3.11;88.83;100280.03;3629558;79;98468;-85
2022/02/05 22:32:06;;;;;;;15.50;5.43;;;;;;;3.14;88.70;100278.80;3639510;78;98746;-85
2022/02/05 22:37:07;;;;;;;14.93;5.50;;;;;;;3.16;88.46;100277.89;3622416;79;98742;-86
2022/02/05 22:42:09;;;;;;;16.03;4.37;;;;;;;3.20;88.52;100262.52;3636858;79;98657;-86
2022/02/05 22:47:10;;;;;;;14.13;5.23;;;;;;;3.24;88.24;100260.73;3635746;79;98789;-86
2022/02/05 22:52:11;;;;;;;15.37;5.00;;;;;;;3.26;88.02;100253.58;3616926;79;32542;-85
2022/02/05 22:57:12;;;;;;;14.00;5.27;;;;;;;3.27;88.08;100248.39;3609088;79;98399;-84
2022/02/05 23:02:14;;;;;;;11.77;5.23;;;;;;;3.28;87.93;100239.88;3617686;79;98789;-86
2022/02/05 23:07:15;;;;;;;11.93;5.00;;;;;;;3.27;88.13;100229.36;3607771;78;98685;-86
2022/02/05 23:44:12;;;;;;;14.18;5.33;;;;;;;3.00;88.92;100187.18;3598717;79;99100;-86
2022/02/05 23:49:13;;;;;;;14.83;5.60;;;;;;;3.01;89.12;100184.69;3617000;79;98747;-88
2022/02/05 23:54:19;;;;;;;14.53;5.50;;;;;;;3.00;89.24;100185.05;3638373;79;99045;-96
2022/02/05 23:59:21;;;;;;;13.07;5.63;;;;;;;2.96;89.04;100166.44;3632623;79;99130;-87
